If you wish to contribute or participate in the discussions about articles you are invited to join SKYbrary as a registered user

 Actions

Pointe-Noire/Antonio Agostinho Neto International Airport

From SKYbrary Wiki

FCPP
Airport
ICAO: FCPP – IATA: PNR
Summary
Name Pointe-Noire/Antonio Agostinho Neto International Airport
Region Africa
Territory Republic of the Congo CG.gif
Location Pointe-Noire, Pointe-Noire
Serving Pointe-Noire
Elevation 16.764 m
55 ft16.764 m
Coordinates 4° 48' 53.00" S, 11° 53' 10.00" E
Runways
Designator Length Width Surface ROPS
17/35 2600 m8,530.184 ft
45 m147.638 ft
ASP /


METAR
Observation FCPP 172000Z 13005KT 030V170 8000 -TSRA FEW010 SCT023 FEW028CB 23/23 Q1012 NOSIG
Station Pointe-Noire
Date/Time 17 October 2019 20:00:00
Wind direction 130°
Wind speed 05 kts
Lowest cloud amount few clouds
Temperature 23°C
Dew point 23°C
Humidity 100%
QNH 1012 hPa
Weather condition n/a

Antonio Agostinho Neto International Airport, is an airport located in Pointe-Noire, Republic of the Congo. It is one of two international airports in the country, the other being Brazzaville Maya-Maya Airport.

Maps

Terrain

Loading map...

Airport Layout

Loading map...


Accidents & Serious Incidents at or in vicinity of FCPP

None on SKYbrary